createdAt,value
2023-04-28T00:01:42.162Z,98883.97
2023-04-28T00:04:24.383Z,98882.28
2023-04-28T00:06:59.718Z,98887.31
2023-04-28T00:09:42.820Z,98885.09
2023-04-28T00:12:30.069Z,98876.09
2023-04-28T00:15:18.067Z,98882.81
2023-04-28T00:17:45.102Z,98886.75
2023-04-28T00:20:12.604Z,98890.25
2023-04-28T00:22:39.531Z,98886.22
2023-04-28T00:25:07.220Z,98887.03
2023-04-28T00:27:34.928Z,98879.88
2023-04-28T00:30:02.369Z,98888.16
2023-04-28T00:32:29.730Z,98886.22
2023-04-28T00:34:57.895Z,98886.88
2023-04-28T00:37:24.796Z,98884.22
2023-04-28T00:39:58.132Z,98879.75
2023-04-28T00:42:25.081Z,98881.63
2023-04-28T00:44:52.051Z,98868.88
2023-04-28T00:47:19.792Z,98870.56
2023-04-28T00:49:49.770Z,98876.31
2023-04-28T00:52:16.699Z,98876.97
2023-04-28T00:54:43.851Z,98879.16
2023-04-28T00:57:13.084Z,98859.53
2023-04-28T00:59:40.119Z,98882.72
2023-04-28T01:02:07.888Z,98877.78
2023-04-28T01:04:36.047Z,98870.75
2023-04-28T01:07:17.056Z,98878.03
2023-04-28T01:09:55.100Z,98866.69
2023-04-28T01:12:46.288Z,98892.09
2023-04-28T01:15:36.582Z,98889.78
2023-04-28T01:18:20.389Z,98883.59
2023-04-28T01:20:47.458Z,98875.56
2023-04-28T01:23:16.312Z,98878.78
2023-04-28T01:25:44.235Z,98883.28
2023-04-28T01:28:11.940Z,98876.56
2023-04-28T01:30:38.866Z,98880.50
2023-04-28T01:33:05.968Z,98873.53
2023-04-28T01:35:32.923Z,98878.69
2023-04-28T01:37:59.927Z,98873.28
2023-04-28T01:40:26.888Z,98880.06
2023-04-28T01:42:53.853Z,98882.56
2023-04-28T01:45:20.872Z,98876.13
2023-04-28T01:47:47.830Z,98884.28
2023-04-28T01:50:14.900Z,98879.47
2023-04-28T01:52:41.817Z,98870.81
2023-04-28T01:55:09.050Z,98873.59
2023-04-28T01:57:36.682Z,98878.38
2023-04-28T02:00:05.253Z,98884.69
2023-04-28T02:02:32.301Z,98865.72
2023-04-28T02:04:59.445Z,98853.97
2023-04-28T02:07:26.583Z,98884.13
2023-04-28T02:09:53.531Z,98882.84
2023-04-28T02:12:20.431Z,98879.16
2023-04-28T02:14:47.432Z,98884.50
2023-04-28T02:17:14.316Z,98877.75
2023-04-28T02:19:41.222Z,98882.94
2023-04-28T02:22:08.326Z,98855.03
2023-04-28T02:24:37.293Z,98880.84
2023-04-28T02:27:05.931Z,98877.19
2023-04-28T02:29:32.883Z,98880.84
2023-04-28T02:31:59.889Z,98873.13
2023-04-28T02:34:27.050Z,98868.53
2023-04-28T02:36:53.974Z,98867.69
2023-04-28T02:39:22.834Z,98850.84
2023-04-28T02:41:49.730Z,98863.47
2023-04-28T02:44:16.803Z,98870.38
2023-04-28T02:46:43.951Z,98863.78
2023-04-28T02:49:11.015Z,98856.22
2023-04-28T02:51:37.960Z,98849.47
2023-04-28T02:54:04.931Z,98855.34
2023-04-28T02:56:31.988Z,98863.22
2023-04-28T02:58:58.887Z,98855.09
2023-04-28T03:01:26.333Z,98844.84
2023-04-28T03:03:53.415Z,98858.19
2023-04-28T03:06:20.567Z,98847.94
2023-04-28T03:08:47.494Z,98861.41
2023-04-28T03:11:14.413Z,98846.38
2023-04-28T03:13:41.717Z,98840.47
2023-04-28T03:16:08.759Z,98846.34
2023-04-28T03:18:36.243Z,98848.84
2023-04-28T03:21:03.194Z,98850.00
2023-04-28T03:23:30.112Z,98858.97
2023-04-28T03:25:57.034Z,98864.63
2023-04-28T03:28:23.978Z,98871.09
2023-04-28T03:30:50.874Z,98863.09
2023-04-28T03:33:17.803Z,98861.41
2023-04-28T03:35:44.753Z,98853.97
2023-04-28T03:38:11.873Z,98854.38
2023-04-28T03:40:38.819Z,98845.69
2023-04-28T03:43:05.827Z,98844.56
2023-04-28T03:45:33.109Z,98846.94
2023-04-28T03:48:00.057Z,98846.25
2023-04-28T03:50:27.118Z,98837.81
2023-04-28T03:52:54.065Z,98842.13
2023-04-28T03:55:21.003Z,98833.44
2023-04-28T03:57:48.145Z,98840.00
2023-04-28T04:00:15.298Z,98840.13
2023-04-28T04:02:42.840Z,98836.84
2023-04-28T04:05:10.315Z,98839.94
2023-04-28T04:07:37.497Z,98838.22
2023-04-28T04:10:04.873Z,98844.22
2023-04-28T04:12:32.219Z,98844.47
2023-04-28T04:14:59.158Z,98843.88
2023-04-28T04:17:26.056Z,98842.16
2023-04-28T04:19:52.988Z,98837.22
2023-04-28T04:22:19.868Z,98841.75
2023-04-28T04:24:47.187Z,98847.88
2023-04-28T04:27:14.177Z,98862.41
2023-04-28T04:29:41.185Z,98854.88
2023-04-28T04:32:08.131Z,98856.34
2023-04-28T04:34:35.045Z,98852.81
2023-04-28T04:37:01.961Z,98850.44
2023-04-28T04:39:28.867Z,98855.00
2023-04-28T04:41:55.838Z,98844.22
2023-04-28T04:44:22.762Z,98861.09
2023-04-28T04:46:49.749Z,98857.00
2023-04-28T04:49:16.662Z,98856.56
2023-04-28T04:51:43.612Z,98856.50
2023-04-28T04:54:10.536Z,98857.31
2023-04-28T04:56:37.686Z,98855.69
2023-04-28T04:59:04.678Z,98854.19
2023-04-28T05:01:31.596Z,98855.72
2023-04-28T05:03:58.752Z,98852.22
2023-04-28T05:06:25.891Z,98859.34
2023-04-28T05:08:52.846Z,98862.31
2023-04-28T05:11:19.798Z,98855.66
2023-04-28T05:13:46.724Z,98858.03
2023-04-28T05:16:13.705Z,98862.66
2023-04-28T05:18:40.810Z,98850.84
2023-04-28T05:21:07.780Z,98851.28
2023-04-28T05:23:34.691Z,98857.84
2023-04-28T05:26:01.652Z,98853.34
2023-04-28T05:28:28.606Z,98861.78
2023-04-28T05:30:55.522Z,98861.00
2023-04-28T05:33:24.263Z,98863.34
2023-04-28T05:35:52.280Z,98863.75
2023-04-28T05:38:20.197Z,98860.50
2023-04-28T05:40:48.570Z,98860.66
2023-04-28T05:43:15.493Z,98853.16
2023-04-28T05:45:42.538Z,98856.47
2023-04-28T05:48:09.468Z,98846.59
2023-04-28T05:50:38.817Z,98857.38
2023-04-28T05:53:06.082Z,98851.28
2023-04-28T05:55:34.093Z,98847.91
2023-04-28T05:58:01.049Z,98863.63
2023-04-28T06:00:28.049Z,98850.16
2023-04-28T06:02:55.267Z,98851.47
2023-04-28T06:05:23.811Z,98852.22
2023-04-28T06:07:53.071Z,98845.34
2023-04-28T06:10:22.997Z,98844.13
2023-04-28T06:12:49.908Z,98856.00
2023-04-28T06:15:16.997Z,98850.78
2023-04-28T06:17:43.953Z,98847.88
2023-04-28T06:20:14.069Z,98809.97
2023-04-28T06:22:41.701Z,98850.16
2023-04-28T06:25:09.150Z,98850.75
2023-04-28T06:27:36.052Z,98852.34
2023-04-28T06:30:03.034Z,98849.25
2023-04-28T06:32:29.964Z,98857.91
2023-04-28T06:34:58.378Z,98845.81
2023-04-28T06:37:25.506Z,98835.66
2023-04-28T06:39:52.453Z,98848.44
2023-04-28T06:42:20.615Z,98849.63
2023-04-28T06:44:47.551Z,98850.78
2023-04-28T06:47:14.512Z,98837.88
2023-04-28T06:49:44.109Z,98842.34
2023-04-28T06:52:11.168Z,98827.66
2023-04-28T06:54:38.736Z,98838.94
2023-04-28T06:57:05.872Z,98833.50
2023-04-28T06:59:32.830Z,98835.63
2023-04-28T07:01:59.872Z,98830.63
2023-04-28T07:04:27.558Z,98829.31
2023-04-28T07:06:54.750Z,98822.06
2023-04-28T07:09:21.795Z,98824.91
2023-04-28T07:11:48.773Z,98806.06
2023-04-28T07:14:16.110Z,98831.84
2023-04-28T07:16:43.677Z,98825.28
2023-04-28T07:19:10.668Z,98824.91
2023-04-28T07:21:37.566Z,98828.66
2023-04-28T07:24:04.607Z,98821.25
2023-04-28T07:26:33.796Z,98829.00
2023-04-28T07:29:00.891Z,98828.22
2023-04-28T07:31:27.965Z,98814.28
2023-04-28T07:33:55.712Z,98825.28
2023-04-28T07:36:23.021Z,98806.16
2023-04-28T07:38:50.154Z,98814.81
2023-04-28T07:41:17.836Z,98813.50
2023-04-28T07:43:44.969Z,98810.19
2023-04-28T07:46:13.092Z,98810.63
2023-04-28T07:48:41.650Z,98804.81
2023-04-28T07:51:08.590Z,98807.56
2023-04-28T07:53:36.715Z,98804.19
2023-04-28T07:56:03.980Z,98810.97
2023-04-28T07:58:31.584Z,98806.69
2023-04-28T08:00:58.500Z,98803.03
2023-04-28T08:03:25.572Z,98813.91
2023-04-28T08:05:52.739Z,98810.53
2023-04-28T08:08:19.764Z,98811.16
2023-04-28T08:10:46.689Z,98804.69
2023-04-28T08:13:13.735Z,98800.16
2023-04-28T08:15:40.699Z,98799.09
2023-04-28T08:18:07.891Z,98795.56
2023-04-28T08:20:35.005Z,98804.34
2023-04-28T08:23:01.970Z,98798.84
2023-04-28T08:25:28.979Z,98789.22
2023-04-28T08:27:57.523Z,98785.06
2023-04-28T08:30:24.966Z,98789.91
2023-04-28T08:32:52.114Z,98791.16
2023-04-28T08:35:19.546Z,98779.00
2023-04-28T08:37:49.613Z,98784.78
2023-04-28T08:40:16.710Z,98785.41
2023-04-28T08:42:46.481Z,98781.31
2023-04-28T08:45:14.852Z,98780.25
2023-04-28T08:47:46.210Z,98779.41
2023-04-28T08:50:14.831Z,98780.63
2023-04-28T08:52:43.059Z,98767.31
2023-04-28T08:55:12.981Z,98761.78
2023-04-28T08:57:49.659Z,98761.75
2023-04-28T09:00:16.816Z,98764.72
2023-04-28T09:02:44.034Z,98759.56
2023-04-28T09:05:13.130Z,98765.78
2023-04-28T09:07:41.534Z,98755.09
2023-04-28T09:10:26.763Z,98757.69
2023-04-28T09:12:56.002Z,98758.00
2023-04-28T09:15:32.634Z,98758.06
2023-04-28T09:18:02.762Z,98749.81
2023-04-28T09:20:31.927Z,98735.81
2023-04-28T09:23:14.579Z,98747.81
2023-04-28T09:25:41.637Z,98753.19
2023-04-28T09:28:22.277Z,98739.53
2023-04-28T09:30:49.262Z,98739.91
2023-04-28T09:35:45.638Z,98735.28
2023-04-28T09:38:13.066Z,98723.19
2023-04-28T09:41:00.015Z,98733.00
2023-04-28T09:43:28.467Z,98725.81
2023-04-28T09:45:57.278Z,98727.63
2023-04-28T09:48:35.506Z,98724.78
2023-04-28T09:51:08.157Z,98717.50
2023-04-28T09:53:38.400Z,98722.88
2023-04-28T09:56:05.649Z,98709.19
2023-04-28T09:58:35.582Z,98701.22
2023-04-28T10:01:03.622Z,98712.56
2023-04-28T10:03:31.740Z,98698.94
2023-04-28T10:06:00.121Z,98690.28
2023-04-28T10:08:28.247Z,98690.41
2023-04-28T10:10:57.065Z,98686.78
2023-04-28T10:13:24.783Z,98679.97
2023-04-28T10:15:55.840Z,98682.97
2023-04-28T10:18:24.482Z,98674.16
2023-04-28T10:20:58.956Z,98661.81
2023-04-28T10:23:42.705Z,98671.94
2023-04-28T10:26:14.604Z,98669.56
2023-04-28T10:28:49.051Z,98660.66
2023-04-28T10:31:18.237Z,98670.28
2023-04-28T10:33:45.455Z,98661.75
2023-04-28T10:36:36.261Z,98659.47
2023-04-28T10:39:12.773Z,98647.59
2023-04-28T10:41:39.803Z,98648.09
2023-04-28T10:44:28.413Z,98637.66
2023-04-28T10:47:07.102Z,98642.25
2023-04-28T10:49:58.421Z,98638.88
2023-04-28T10:52:51.717Z,98646.09
2023-04-28T10:55:36.739Z,98623.53
2023-04-28T10:58:29.857Z,98622.25
2023-04-28T11:01:22.882Z,98615.09
2023-04-28T11:04:00.466Z,98616.41
2023-04-28T11:06:42.041Z,98618.66
2023-04-28T11:09:15.085Z,98614.13
2023-04-28T11:12:00.536Z,98609.94
2023-04-28T11:14:30.348Z,98611.63
2023-04-28T11:17:03.335Z,98596.00
2023-04-28T11:19:38.090Z,98590.41
2023-04-28T11:22:11.963Z,98595.78
2023-04-28T11:24:38.873Z,98597.75
2023-04-28T11:27:06.190Z,98593.72
2023-04-28T11:29:38.538Z,98589.34
2023-04-28T11:32:10.347Z,98582.47
2023-04-28T11:34:38.189Z,98579.38
2023-04-28T11:37:07.381Z,98579.47
2023-04-28T11:39:35.071Z,98577.88
2023-04-28T11:42:03.611Z,98576.03
2023-04-28T11:44:31.990Z,98569.72
2023-04-28T11:47:01.792Z,98572.50
2023-04-28T11:49:31.181Z,98558.50
2023-04-28T11:52:00.572Z,98569.44
2023-04-28T11:54:29.230Z,98563.47
2023-04-28T11:56:57.906Z,98557.56
2023-04-28T11:59:31.349Z,98549.41
2023-04-28T12:02:07.051Z,98553.75
2023-04-28T12:04:39.042Z,98549.28
2023-04-28T12:07:16.670Z,98548.88
2023-04-28T12:09:49.039Z,98552.34
2023-04-28T12:12:39.993Z,98550.53
2023-04-28T12:15:17.510Z,98546.22
2023-04-28T12:17:45.927Z,98539.56
2023-04-28T12:20:39.331Z,98525.91
2023-04-28T12:23:08.119Z,98532.75
2023-04-28T12:25:44.667Z,98525.13
2023-04-28T12:28:11.693Z,98517.28
2023-04-28T12:30:42.739Z,98521.03
2023-04-28T12:33:26.188Z,98514.03
2023-04-28T12:35:57.483Z,98517.13
2023-04-28T12:38:25.133Z,98515.38
2023-04-28T12:40:52.803Z,98511.84
2023-04-28T12:43:19.882Z,98500.06
2023-04-28T12:45:46.941Z,98500.69
2023-04-28T12:48:13.886Z,98493.84
2023-04-28T12:50:40.783Z,98493.06
2023-04-28T12:53:07.720Z,98491.28
2023-04-28T12:55:34.839Z,98482.28
2023-04-28T12:58:01.791Z,98477.28
2023-04-28T13:00:28.714Z,98479.88
2023-04-28T13:02:55.844Z,98473.31
2023-04-28T13:05:23.579Z,98463.16
2023-04-28T13:07:51.160Z,98472.16
2023-04-28T13:10:19.198Z,98466.00
2023-04-28T13:12:46.073Z,98470.50
2023-04-28T13:15:13.072Z,98457.41
2023-04-28T13:17:40.321Z,98459.91
2023-04-28T13:20:07.904Z,98461.81
2023-04-28T13:22:34.873Z,98455.81
2023-04-28T13:25:01.818Z,98445.28
2023-04-28T13:27:30.668Z,98447.75
2023-04-28T13:29:59.454Z,98451.31
2023-04-28T13:32:28.300Z,98441.44
2023-04-28T13:34:55.713Z,98438.88
2023-04-28T13:37:22.590Z,98423.38
2023-04-28T13:39:49.518Z,98420.81
2023-04-28T13:42:16.648Z,98420.56
2023-04-28T13:44:43.758Z,98419.25
2023-04-28T13:47:11.152Z,98371.69
2023-04-28T13:49:39.817Z,98416.91
2023-04-28T13:52:06.910Z,98413.53
2023-04-28T13:54:33.766Z,98436.56
2023-04-28T13:57:01.482Z,98412.03
2023-04-28T13:59:28.484Z,98406.81
2023-04-28T14:01:55.373Z,98401.91
2023-04-28T14:04:23.318Z,98401.78
2023-04-28T14:06:50.801Z,98399.47
2023-04-28T14:09:17.736Z,98395.91
2023-04-28T14:11:44.863Z,98360.44
2023-04-28T14:14:12.295Z,98399.13
2023-04-28T14:16:39.353Z,98392.50
2023-04-28T14:19:07.385Z,98401.56
2023-04-28T14:21:35.393Z,98403.84
2023-04-28T14:24:02.398Z,98394.31
2023-04-28T14:26:29.281Z,98397.56
2023-04-28T14:28:56.289Z,98394.19
2023-04-28T14:31:23.295Z,98393.06
2023-04-28T14:33:50.322Z,98377.75
2023-04-28T14:36:17.295Z,98382.47
2023-04-28T14:38:44.744Z,98381.47
2023-04-28T14:41:11.827Z,98368.53
2023-04-28T14:43:38.768Z,98376.31
2023-04-28T14:46:06.048Z,98381.13
2023-04-28T14:48:34.409Z,98380.03
2023-04-28T14:51:01.817Z,98375.56
2023-04-28T14:53:28.886Z,98372.00
2023-04-28T14:56:02.019Z,98373.19
2023-04-28T14:58:37.980Z,98378.00
2023-04-28T15:01:05.086Z,98376.41
2023-04-28T15:03:32.828Z,98378.56
2023-04-28T15:06:00.742Z,98369.28
2023-04-28T15:08:29.456Z,98353.31
2023-04-28T15:10:56.993Z,98369.75
2023-04-28T15:13:25.436Z,98362.38
2023-04-28T15:15:52.390Z,98366.66
2023-04-28T15:18:19.568Z,98373.19
2023-04-28T15:20:46.836Z,98364.00
2023-04-28T15:23:14.480Z,98373.44
2023-04-28T15:25:41.425Z,98372.53
2023-04-28T15:28:09.182Z,98362.84
2023-04-28T15:30:36.621Z,98359.69
2023-04-28T15:33:04.459Z,98361.34
2023-04-28T15:35:32.860Z,98352.00
2023-04-28T15:38:00.382Z,98359.38
2023-04-28T15:40:27.358Z,98349.19
2023-04-28T15:42:54.261Z,98346.78
2023-04-28T15:45:22.084Z,98350.13
2023-04-28T15:47:51.050Z,98343.81
2023-04-28T15:50:19.757Z,98337.38
2023-04-28T15:52:50.158Z,98343.91
2023-04-28T15:55:19.845Z,98337.38
2023-04-28T15:57:48.362Z,98324.97
2023-04-28T16:00:16.648Z,98327.50
2023-04-28T16:02:44.128Z,98328.09
2023-04-28T16:05:11.598Z,98293.91
2023-04-28T16:07:41.245Z,98332.47
2023-04-28T16:10:13.488Z,98278.91
2023-04-28T16:12:42.055Z,98319.66
2023-04-28T16:15:11.425Z,98305.06
2023-04-28T16:17:39.601Z,98314.69
2023-04-28T16:20:08.474Z,98310.53
2023-04-28T16:22:36.234Z,98306.50
2023-04-28T16:25:06.830Z,98309.47
2023-04-28T16:27:34.134Z,98302.84
2023-04-28T16:30:01.263Z,98304.81
2023-04-28T16:32:29.072Z,98311.88
2023-04-28T16:34:58.873Z,98309.13
2023-04-28T16:37:26.407Z,98306.75
2023-04-28T16:39:53.357Z,98300.56
2023-04-28T16:42:23.204Z,98306.94
2023-04-28T16:44:52.777Z,98306.94
2023-04-28T16:47:20.548Z,98292.75
2023-04-28T16:49:48.312Z,98298.22
2023-04-28T16:52:15.799Z,98290.22
2023-04-28T16:54:42.689Z,98290.00
2023-04-28T16:57:09.709Z,98282.66
2023-04-28T16:59:37.589Z,98280.59
2023-04-28T17:02:04.932Z,98287.22
2023-04-28T17:04:32.219Z,98287.81
2023-04-28T17:06:59.783Z,98287.25
2023-04-28T17:09:27.748Z,98284.19
2023-04-28T17:11:55.147Z,98284.31
2023-04-28T17:14:22.347Z,98283.28
2023-04-28T17:16:49.410Z,98284.31
2023-04-28T17:19:17.008Z,98281.38
2023-04-28T17:21:44.003Z,98274.84
2023-04-28T17:24:10.964Z,98283.09
2023-04-28T17:26:37.932Z,98275.28
2023-04-28T17:29:05.132Z,98277.53
2023-04-28T17:31:32.238Z,98264.94
2023-04-28T17:34:01.912Z,98277.91
2023-04-28T17:36:29.125Z,98281.59
2023-04-28T17:38:56.297Z,98283.34
2023-04-28T17:41:23.443Z,98262.69
2023-04-28T17:43:54.024Z,98271.50
2023-04-28T17:46:22.296Z,98284.88
2023-04-28T17:48:49.699Z,98283.44
2023-04-28T17:51:16.667Z,98292.66
2023-04-28T17:53:43.610Z,98281.41
2023-04-28T17:56:11.097Z,98284.59
2023-04-28T17:58:38.043Z,98286.34
2023-04-28T18:01:06.792Z,98293.66
2023-04-28T18:03:41.600Z,98288.44
2023-04-28T18:06:09.063Z,98287.47
2023-04-28T18:08:37.022Z,98287.69
2023-04-28T18:11:04.262Z,98290.25
2023-04-28T18:13:31.782Z,98299.03
2023-04-28T18:15:58.723Z,98304.31
2023-04-28T18:18:26.326Z,98303.94
2023-04-28T18:20:59.429Z,98311.84
2023-04-28T18:23:27.526Z,98324.59
2023-04-28T18:25:54.486Z,98324.59
2023-04-28T18:28:21.529Z,98333.38
2023-04-28T18:30:48.532Z,98335.72
2023-04-28T18:33:17.219Z,98338.72
2023-04-28T18:35:44.507Z,98343.91
2023-04-28T18:38:11.375Z,98339.63
2023-04-28T18:40:39.369Z,98336.28
2023-04-28T18:43:07.493Z,98337.19
2023-04-28T18:45:41.417Z,98335.75
2023-04-28T18:48:09.730Z,98333.03
2023-04-28T18:50:37.188Z,98344.13
2023-04-28T18:53:05.215Z,98341.84
2023-04-28T18:55:35.105Z,98338.97
2023-04-28T18:58:02.383Z,98340.06
2023-04-28T19:00:29.616Z,98347.84
2023-04-28T19:02:56.904Z,98355.34
2023-04-28T19:05:24.202Z,98358.69
2023-04-28T19:07:51.219Z,98317.16
2023-04-28T19:10:18.290Z,98354.09
2023-04-28T19:12:45.226Z,98345.97
2023-04-28T19:15:12.257Z,98349.56
2023-04-28T19:17:39.651Z,98354.97
2023-04-28T19:20:07.399Z,98341.69
2023-04-28T19:22:40.388Z,98353.31
2023-04-28T19:25:08.010Z,98348.53
2023-04-28T19:27:37.206Z,98350.22
2023-04-28T19:30:06.531Z,98346.28
2023-04-28T19:32:33.707Z,98335.09
2023-04-28T19:35:00.956Z,98348.44
2023-04-28T19:37:28.130Z,98340.97
2023-04-28T19:39:55.402Z,98351.06
2023-04-28T19:42:22.447Z,98349.22
2023-04-28T19:44:55.685Z,98345.72
2023-04-28T19:47:24.209Z,98336.19
2023-04-28T19:49:52.252Z,98346.88
2023-04-28T19:52:21.172Z,98334.41
2023-04-28T19:54:49.454Z,98328.78
2023-04-28T19:57:16.949Z,98316.59
2023-04-28T19:59:43.954Z,98326.41
2023-04-28T20:02:11.154Z,98329.59
2023-04-28T20:04:38.721Z,98327.78
2023-04-28T20:07:06.677Z,98315.16
2023-04-28T20:09:38.106Z,98331.81
2023-04-28T20:12:07.819Z,98332.47
2023-04-28T20:14:35.529Z,98322.91
2023-04-28T20:17:04.017Z,98329.19
2023-04-28T20:19:31.805Z,98324.00
2023-04-28T20:21:58.832Z,98320.91
2023-04-28T20:24:26.142Z,98319.47
2023-04-28T20:26:54.802Z,98321.38
2023-04-28T20:29:21.982Z,98319.50
2023-04-28T20:31:49.006Z,98318.06
2023-04-28T20:34:15.949Z,98322.25
2023-04-28T20:36:43.244Z,98302.88
2023-04-28T20:39:12.458Z,98332.25
2023-04-28T20:41:41.147Z,98321.63
2023-04-28T20:44:08.751Z,98316.41
2023-04-28T20:46:36.350Z,98321.22
2023-04-28T20:49:04.609Z,98295.00
2023-04-28T20:51:34.351Z,98323.50
2023-04-28T20:54:01.638Z,98312.03
2023-04-28T20:56:28.866Z,98314.56
2023-04-28T20:58:56.057Z,98305.59
2023-04-28T21:01:23.286Z,98312.44
2023-04-28T21:03:50.636Z,98306.00
2023-04-28T21:06:17.840Z,98301.59
2023-04-28T21:08:45.385Z,98306.16
2023-04-28T21:11:16.433Z,98300.94
2023-04-28T21:13:44.739Z,98296.59
2023-04-28T21:16:19.403Z,98300.31
2023-04-28T21:18:48.038Z,98290.13
2023-04-28T21:21:15.104Z,98290.09
2023-04-28T21:23:42.970Z,98285.53
2023-04-28T21:26:10.591Z,98295.06
2023-04-28T21:28:37.948Z,98291.31
2023-04-28T21:31:05.277Z,98293.41
2023-04-28T21:33:32.489Z,98282.78
2023-04-28T21:36:03.808Z,98301.28
2023-04-28T21:38:30.748Z,98285.88
2023-04-28T21:40:57.665Z,98296.06
2023-04-28T21:43:24.645Z,98288.19
2023-04-28T21:45:52.442Z,98285.91
2023-04-28T21:48:19.363Z,98287.59
2023-04-28T21:50:47.540Z,98286.78
2023-04-28T21:53:14.438Z,98280.78
2023-04-28T21:55:41.757Z,98277.03
2023-04-28T21:58:08.696Z,98275.56
2023-04-28T22:00:43.427Z,98273.09
2023-04-28T22:03:11.214Z,98282.63
2023-04-28T22:05:40.493Z,98285.34
2023-04-28T22:08:07.940Z,98269.34
2023-04-28T22:10:35.489Z,98274.94
2023-04-28T22:13:03.317Z,98279.72
2023-04-28T22:15:30.272Z,98278.84
2023-04-28T22:17:58.443Z,98282.56
2023-04-28T22:20:25.524Z,98270.28
2023-04-28T22:22:54.237Z,98278.38
2023-04-28T22:25:21.569Z,98275.63
2023-04-28T22:27:48.640Z,98270.00
2023-04-28T22:30:15.961Z,98279.53
2023-04-28T22:32:47.383Z,98270.59
2023-04-28T22:35:14.833Z,98271.63
2023-04-28T22:37:41.808Z,98263.66
2023-04-28T22:40:09.544Z,98271.75
2023-04-28T22:42:37.557Z,98263.25
2023-04-28T22:45:06.803Z,98269.06
2023-04-28T22:47:34.794Z,98260.31
2023-04-28T22:50:06.020Z,98259.22
2023-04-28T22:52:33.934Z,98266.09
2023-04-28T22:55:01.180Z,98262.75
2023-04-28T22:57:28.366Z,98262.34
2023-04-28T22:59:55.573Z,98260.84
2023-04-28T23:02:23.454Z,98263.09
2023-04-28T23:04:51.305Z,98275.75
2023-04-28T23:07:18.363Z,98270.75
2023-04-28T23:09:45.401Z,98260.56
2023-04-28T23:12:12.377Z,98262.59
2023-04-28T23:14:39.327Z,98269.63
2023-04-28T23:17:06.361Z,98258.41
2023-04-28T23:19:33.364Z,98260.84
2023-04-28T23:22:00.295Z,98256.69
2023-04-28T23:24:27.581Z,98257.06
2023-04-28T23:26:54.546Z,98261.00
2023-04-28T23:29:21.639Z,98262.25
2023-04-28T23:31:52.717Z,98260.75
2023-04-28T23:34:19.732Z,98247.88
2023-04-28T23:36:46.770Z,98238.59
2023-04-28T23:39:13.784Z,98232.97
2023-04-28T23:41:41.265Z,98236.31
2023-04-28T23:44:08.582Z,98226.56
2023-04-28T23:46:35.519Z,98230.53
2023-04-28T23:49:02.465Z,98230.13
2023-04-28T23:51:29.415Z,98221.84
2023-04-28T23:53:56.440Z,98221.19
2023-04-28T23:56:23.749Z,98223.44
2023-04-28T23:58:51.380Z,98209.91
